sensor_id;sensor_type;location;lat;lon;timestamp;pressure;altitude;pressure_sealevel;temperature;humidity
66887;BME280;53798;51.680;5.976;2022-10-17T00:01:01;101523.63;;;13.58;99.77
66887;BME280;53798;51.680;5.976;2022-10-17T00:03:29;101519.16;;;13.60;99.96
66887;BME280;53798;51.680;5.976;2022-10-17T00:05:58;101527.94;;;13.60;99.92
66887;BME280;53798;51.680;5.976;2022-10-17T00:08:25;101527.94;;;13.60;100.00
66887;BME280;53798;51.680;5.976;2022-10-17T00:11:05;101533.22;;;13.62;99.94
66887;BME280;53798;51.680;5.976;2022-10-17T00:13:35;101541.09;;;13.63;100.00
66887;BME280;53798;51.680;5.976;2022-10-17T00:16:02;101531.34;;;13.65;100.00
66887;BME280;53798;51.680;5.976;2022-10-17T00:18:31;101536.66;;;13.64;100.00
66887;BME280;53798;51.680;5.976;2022-10-17T00:20:58;101538.41;;;13.65;100.00
66887;BME280;53798;51.680;5.976;2022-10-17T00:23:25;101533.06;;;13.66;100.00
66887;BME280;53798;51.680;5.976;2022-10-17T00:26:02;101532.09;;;13.69;100.00
66887;BME280;53798;51.680;5.976;2022-10-17T00:28:31;101527.66;;;13.70;100.00
66887;BME280;53798;51.680;5.976;2022-10-17T00:31:00;101525.81;;;13.72;100.00
66887;BME280;53798;51.680;5.976;2022-10-17T00:33:30;101526.72;;;13.71;100.00
66887;BME280;53798;51.680;5.976;2022-10-17T00:38:41;101520.50;;;13.73;100.00
66887;BME280;53798;51.680;5.976;2022-10-17T00:41:12;101522.19;;;13.74;100.00
66887;BME280;53798;51.680;5.976;2022-10-17T00:43:58;101524.84;;;13.74;100.00
66887;BME280;53798;51.680;5.976;2022-10-17T00:46:31;101524.81;;;13.76;100.00
66887;BME280;53798;51.680;5.976;2022-10-17T00:49:08;101514.22;;;13.76;100.00
66887;BME280;53798;51.680;5.976;2022-10-17T00:51:46;101519.41;;;13.79;100.00
66887;BME280;53798;51.680;5.976;2022-10-17T00:54:18;101514.09;;;13.79;100.00
66887;BME280;53798;51.680;5.976;2022-10-17T00:56:51;101512.25;;;13.82;100.00
66887;BME280;53798;51.680;5.976;2022-10-17T00:59:21;101516.50;;;13.87;100.00
66887;BME280;53798;51.680;5.976;2022-10-17T01:02:08;101512.09;;;13.87;100.00
66887;BME280;53798;51.680;5.976;2022-10-17T01:04:38;101501.41;;;13.89;100.00
66887;BME280;53798;51.680;5.976;2022-10-17T01:07:09;101506.72;;;13.89;100.00
66887;BME280;53798;51.680;5.976;2022-10-17T01:09:39;101503.09;;;13.91;100.00
66887;BME280;53798;51.680;5.976;2022-10-17T01:12:23;101507.47;;;13.92;100.00
66887;BME280;53798;51.680;5.976;2022-10-17T01:24:13;101501.09;;;13.98;100.00
66887;BME280;53798;51.680;5.976;2022-10-17T01:30:28;101497.44;;;14.02;100.00
66887;BME280;53798;51.680;5.976;2022-10-17T01:33:14;101500.03;;;14.04;100.00
66887;BME280;53798;51.680;5.976;2022-10-17T01:38:25;101500.84;;;14.06;100.00
66887;BME280;53798;51.680;5.976;2022-10-17T01:41:15;101499.03;;;14.08;100.00
66887;BME280;53798;51.680;5.976;2022-10-17T01:43:52;101501.50;;;14.12;100.00
66887;BME280;53798;51.680;5.976;2022-10-17T01:46:36;101490.91;;;14.12;100.00
66887;BME280;53798;51.680;5.976;2022-10-17T01:49:09;101481.06;;;14.16;100.00
66887;BME280;53798;51.680;5.976;2022-10-17T01:51:48;101487.97;;;14.20;100.00
66887;BME280;53798;51.680;5.976;2022-10-17T01:54:30;101480.88;;;14.21;100.00
66887;BME280;53798;51.680;5.976;2022-10-17T01:57:08;101479.06;;;14.23;100.00
66887;BME280;53798;51.680;5.976;2022-10-17T01:59:51;101474.59;;;14.23;100.00
66887;BME280;53798;51.680;5.976;2022-10-17T02:02:22;101470.13;;;14.25;100.00
66887;BME280;53798;51.680;5.976;2022-10-17T02:04:52;101458.53;;;14.28;100.00
66887;BME280;53798;51.680;5.976;2022-10-17T02:07:23;101467.22;;;14.32;100.00
66887;BME280;53798;51.680;5.976;2022-10-17T02:09:51;101467.19;;;14.33;100.00
66887;BME280;53798;51.680;5.976;2022-10-17T02:12:32;101466.22;;;14.36;100.00
66887;BME280;53798;51.680;5.976;2022-10-17T02:15:30;101472.34;;;14.38;100.00
66887;BME280;53798;51.680;5.976;2022-10-17T02:26:40;101476.56;;;14.43;100.00
66887;BME280;53798;51.680;5.976;2022-10-17T02:29:20;101482.72;;;14.44;100.00
66887;BME280;53798;51.680;5.976;2022-10-17T02:32:00;101479.22;;;14.43;100.00
66887;BME280;53798;51.680;5.976;2022-10-17T02:34:37;101480.97;;;14.43;100.00
66887;BME280;53798;51.680;5.976;2022-10-17T02:37:12;101474.81;;;14.42;100.00
66887;BME280;53798;51.680;5.976;2022-10-17T02:39:45;101474.00;;;14.40;100.00
66887;BME280;53798;51.680;5.976;2022-10-17T02:42:13;101471.28;;;14.42;100.00
66887;BME280;53798;51.680;5.976;2022-10-17T02:44:43;101466.91;;;14.41;100.00
66887;BME280;53798;51.680;5.976;2022-10-17T02:50:09;101474.81;;;14.42;100.00
66887;BME280;53798;51.680;5.976;2022-10-17T02:52:54;101472.16;;;14.42;100.00
66887;BME280;53798;51.680;5.976;2022-10-17T02:55:32;101475.75;;;14.41;100.00
66887;BME280;53798;51.680;5.976;2022-10-17T02:58:08;101474.00;;;14.40;100.00
66887;BME280;53798;51.680;5.976;2022-10-17T03:00:42;101477.56;;;14.39;100.00
66887;BME280;53798;51.680;5.976;2022-10-17T03:03:26;101473.13;;;14.40;100.00
66887;BME280;53798;51.680;5.976;2022-10-17T03:05:59;101472.28;;;14.39;100.00
66887;BME280;53798;51.680;5.976;2022-10-17T03:08:26;101475.00;;;14.38;100.00
66887;BME280;53798;51.680;5.976;2022-10-17T03:10:55;101476.66;;;14.40;100.00
66887;BME280;53798;51.680;5.976;2022-10-17T03:13:22;101474.00;;;14.40;100.00
66887;BME280;53798;51.680;5.976;2022-10-17T03:15:49;101470.44;;;14.41;100.00
66887;BME280;53798;51.680;5.976;2022-10-17T03:18:17;101473.03;;;14.43;100.00
66887;BME280;53798;51.680;5.976;2022-10-17T03:20:46;101472.16;;;14.42;100.00
66887;BME280;53798;51.680;5.976;2022-10-17T03:23:13;101479.13;;;14.45;100.00
66887;BME280;53798;51.680;5.976;2022-10-17T03:25:40;101474.69;;;14.45;100.00
66887;BME280;53798;51.680;5.976;2022-10-17T03:28:10;101473.75;;;14.47;100.00
66887;BME280;53798;51.680;5.976;2022-10-17T03:30:37;101479.03;;;14.48;100.00
66887;BME280;53798;51.680;5.976;2022-10-17T03:33:05;101477.25;;;14.49;100.00
66887;BME280;53798;51.680;5.976;2022-10-17T03:35:32;101482.53;;;14.49;100.00
66887;BME280;53798;51.680;5.976;2022-10-17T03:38:00;101485.19;;;14.49;100.00
66887;BME280;53798;51.680;5.976;2022-10-17T03:40:28;101476.31;;;14.50;100.00
66887;BME280;53798;51.680;5.976;2022-10-17T03:42:55;101487.78;;;14.50;100.00
66887;BME280;53798;51.680;5.976;2022-10-17T03:45:23;101489.47;;;14.53;100.00
66887;BME280;53798;51.680;5.976;2022-10-17T03:47:51;101488.56;;;14.54;100.00
66887;BME280;53798;51.680;5.976;2022-10-17T03:50:18;101490.34;;;14.53;100.00
66887;BME280;53798;51.680;5.976;2022-10-17T03:52:47;101497.44;;;14.53;100.00
66887;BME280;53798;51.680;5.976;2022-10-17T03:55:15;101496.53;;;14.54;100.00
66887;BME280;53798;51.680;5.976;2022-10-17T03:57:44;101498.28;;;14.53;100.00
66887;BME280;53798;51.680;5.976;2022-10-17T04:00:13;101489.47;;;14.53;100.00
66887;BME280;53798;51.680;5.976;2022-10-17T04:02:40;101488.56;;;14.54;100.00
66887;BME280;53798;51.680;5.976;2022-10-17T04:05:13;101491.16;;;14.55;100.00
66887;BME280;53798;51.680;5.976;2022-10-17T04:07:40;101492.88;;;14.56;100.00
66887;BME280;53798;51.680;5.976;2022-10-17T04:10:09;101490.16;;;14.58;100.00
66887;BME280;53798;51.680;5.976;2022-10-17T04:12:36;101490.16;;;14.58;100.00
66887;BME280;53798;51.680;5.976;2022-10-17T04:15:04;101489.25;;;14.59;100.00
66887;BME280;53798;51.680;5.976;2022-10-17T04:17:32;101486.53;;;14.60;100.00
66887;BME280;53798;51.680;5.976;2022-10-17T04:20:05;101482.91;;;14.63;100.00
66887;BME280;53798;51.680;5.976;2022-10-17T04:22:33;101490.72;;;14.66;100.00
66887;BME280;53798;51.680;5.976;2022-10-17T04:25:01;101488.81;;;14.71;100.00
66887;BME280;53798;51.680;5.976;2022-10-17T04:27:40;101479.88;;;14.74;100.00
66887;BME280;53798;51.680;5.976;2022-10-17T04:30:08;101482.47;;;14.75;100.00
66887;BME280;53798;51.680;5.976;2022-10-17T04:32:36;101485.94;;;14.78;100.00
66887;BME280;53798;51.680;5.976;2022-10-17T04:35:20;101482.31;;;14.80;100.00
66887;BME280;53798;51.680;5.976;2022-10-17T04:37:55;101477.78;;;14.82;100.00
66887;BME280;53798;51.680;5.976;2022-10-17T04:40:24;101486.50;;;14.86;100.00
66887;BME280;53798;51.680;5.976;2022-10-17T04:42:52;101489.94;;;14.89;100.00
66887;BME280;53798;51.680;5.976;2022-10-17T04:45:23;101511.03;;;14.93;100.00
66887;BME280;53798;51.680;5.976;2022-10-17T04:47:56;101516.16;;;14.97;100.00
66887;BME280;53798;51.680;5.976;2022-10-17T04:50:23;101509.88;;;15.00;100.00
66887;BME280;53798;51.680;5.976;2022-10-17T04:53:13;101496.53;;;15.01;100.00
66887;BME280;53798;51.680;5.976;2022-10-17T04:55:40;101504.50;;;15.01;100.00
66887;BME280;53798;51.680;5.976;2022-10-17T04:58:07;101524.03;;;15.00;100.00
66887;BME280;53798;51.680;5.976;2022-10-17T05:00:34;101525.75;;;15.01;100.00
66887;BME280;53798;51.680;5.976;2022-10-17T05:03:17;101527.53;;;15.01;100.00
66887;BME280;53798;51.680;5.976;2022-10-17T05:05:46;101524.88;;;15.01;100.00
66887;BME280;53798;51.680;5.976;2022-10-17T05:08:13;101531.91;;;15.02;100.00
66887;BME280;53798;51.680;5.976;2022-10-17T05:10:43;101520.50;;;15.00;100.00
66887;BME280;53798;51.680;5.976;2022-10-17T05:13:12;101524.88;;;15.01;100.00
66887;BME280;53798;51.680;5.976;2022-10-17T05:15:40;101524.94;;;14.99;100.00
66887;BME280;53798;51.680;5.976;2022-10-17T05:18:08;101525.84;;;14.98;100.00
66887;BME280;53798;51.680;5.976;2022-10-17T05:20:36;101535.66;;;14.96;100.00
66887;BME280;53798;51.680;5.976;2022-10-17T05:23:05;101534.81;;;14.96;100.00
66887;BME280;53798;51.680;5.976;2022-10-17T05:25:37;101542.84;;;14.94;100.00
66887;BME280;53798;51.680;5.976;2022-10-17T05:28:05;101543.75;;;14.93;100.00
66887;BME280;53798;51.680;5.976;2022-10-17T05:30:33;101541.28;;;14.88;100.00
66887;BME280;53798;51.680;5.976;2022-10-17T05:33:05;101529.03;;;14.84;100.00
66887;BME280;53798;51.680;5.976;2022-10-17T05:35:32;101530.88;;;14.82;100.00
66887;BME280;53798;51.680;5.976;2022-10-17T05:38:00;101544.22;;;14.81;100.00
66887;BME280;53798;51.680;5.976;2022-10-17T05:40:30;101543.41;;;14.79;100.00
66887;BME280;53798;51.680;5.976;2022-10-17T05:42:57;101547.84;;;14.78;100.00
66887;BME280;53798;51.680;5.976;2022-10-17T05:45:24;101548.78;;;14.77;100.00
66887;BME280;53798;51.680;5.976;2022-10-17T05:47:52;101553.97;;;14.80;100.00
66887;BME280;53798;51.680;5.976;2022-10-17T05:50:19;101551.25;;;14.82;100.00
66887;BME280;53798;51.680;5.976;2022-10-17T05:53:03;101558.16;;;14.86;100.00
66887;BME280;53798;51.680;5.976;2022-10-17T05:55:36;101563.44;;;14.87;100.00
66887;BME280;53798;51.680;5.976;2022-10-17T05:58:03;101566.03;;;14.89;100.00
66887;BME280;53798;51.680;5.976;2022-10-17T06:00:36;101572.22;;;14.89;100.00
66887;BME280;53798;51.680;5.976;2022-10-17T06:03:29;101572.16;;;14.91;100.00
66887;BME280;53798;51.680;5.976;2022-10-17T06:06:02;101571.22;;;14.92;100.00
66887;BME280;53798;51.680;5.976;2022-10-17T06:08:31;101573.81;;;14.94;100.00
66887;BME280;53798;51.680;5.976;2022-10-17T06:11:01;101582.59;;;14.96;100.00
66887;BME280;53798;51.680;5.976;2022-10-17T06:13:35;101577.28;;;14.96;100.00
66887;BME280;53798;51.680;5.976;2022-10-17T06:16:11;101579.94;;;14.96;100.00
66887;BME280;53798;51.680;5.976;2022-10-17T06:18:39;101582.59;;;14.96;100.00
66887;BME280;53798;51.680;5.976;2022-10-17T06:21:09;101591.47;;;14.95;100.00
66887;BME280;53798;51.680;5.976;2022-10-17T06:23:43;101590.66;;;14.93;100.00
66887;BME280;53798;51.680;5.976;2022-10-17T06:26:15;101591.56;;;14.93;100.00
66887;BME280;53798;51.680;5.976;2022-10-17T06:28:43;101591.56;;;14.93;100.00
66887;BME280;53798;51.680;5.976;2022-10-17T06:31:15;101593.28;;;14.94;100.00
66887;BME280;53798;51.680;5.976;2022-10-17T06:33:44;101603.03;;;14.94;100.00
66887;BME280;53798;51.680;5.976;2022-10-17T06:36:13;101603.03;;;14.94;100.00
66887;BME280;53798;51.680;5.976;2022-10-17T06:38:43;101603.84;;;14.96;100.00
66887;BME280;53798;51.680;5.976;2022-10-17T06:41:19;101604.59;;;14.99;100.00
66887;BME280;53798;51.680;5.976;2022-10-17T06:43:51;101596.53;;;15.02;100.00
66887;BME280;53798;51.680;5.976;2022-10-17T06:46:38;101599.91;;;15.06;100.00
66887;BME280;53798;51.680;5.976;2022-10-17T06:49:08;101597.16;;;15.09;100.00
66887;BME280;53798;51.680;5.976;2022-10-17T06:51:47;101597.91;;;15.13;100.00
66887;BME280;53798;51.680;5.976;2022-10-17T06:54:18;101598.59;;;15.18;100.00
66887;BME280;53798;51.680;5.976;2022-10-17T06:57:07;101597.56;;;15.22;100.00
66887;BME280;53798;51.680;5.976;2022-10-17T06:59:50;101590.41;;;15.24;100.00
66887;BME280;53798;51.680;5.976;2022-10-17T07:02:22;101593.75;;;15.29;100.00
66887;BME280;53798;51.680;5.976;2022-10-17T07:04:51;101594.47;;;15.33;100.00
66887;BME280;53798;51.680;5.976;2022-10-17T07:07:18;101602.28;;;15.37;100.00
66887;BME280;53798;51.680;5.976;2022-10-17T07:09:45;101605.63;;;15.43;100.00
66887;BME280;53798;51.680;5.976;2022-10-17T07:12:14;101603.66;;;15.48;100.00
66887;BME280;53798;51.680;5.976;2022-10-17T07:14:44;101604.28;;;15.55;99.94
66887;BME280;53798;51.680;5.976;2022-10-17T07:17:13;101613.81;;;15.60;99.87
66887;BME280;53798;51.680;5.976;2022-10-17T07:19:41;101616.19;;;15.68;99.61
66887;BME280;53798;51.680;5.976;2022-10-17T07:22:10;101619.28;;;15.79;99.22
66887;BME280;53798;51.680;5.976;2022-10-17T07:24:42;101616.28;;;15.89;98.83
66887;BME280;53798;51.680;5.976;2022-10-17T07:27:44;101620.41;;;15.96;98.80
66887;BME280;53798;51.680;5.976;2022-10-17T07:30:14;101617.53;;;16.02;98.54
66887;BME280;53798;51.680;5.976;2022-10-17T07:32:52;101621.84;;;16.05;98.44
66887;BME280;53798;51.680;5.976;2022-10-17T07:35:20;101629.63;;;16.09;98.21
66887;BME280;53798;51.680;5.976;2022-10-17T07:37:47;101633.94;;;16.12;97.81
66887;BME280;53798;51.680;5.976;2022-10-17T07:40:17;101641.75;;;16.17;98.07
66887;BME280;53798;51.680;5.976;2022-10-17T07:42:44;101630.91;;;16.21;98.07
66887;BME280;53798;51.680;5.976;2022-10-17T07:45:12;101648.47;;;16.25;98.01
66887;BME280;53798;51.680;5.976;2022-10-17T07:47:41;101655.38;;;16.29;97.53
66887;BME280;53798;51.680;5.976;2022-10-17T07:50:12;101665.91;;;16.33;96.88
66887;BME280;53798;51.680;5.976;2022-10-17T07:52:39;101673.03;;;16.32;96.62
66887;BME280;53798;51.680;5.976;2022-10-17T07:55:08;101671.31;;;16.31;97.01
66887;BME280;53798;51.680;5.976;2022-10-17T07:57:35;101678.41;;;16.30;96.69
66887;BME280;53798;51.680;5.976;2022-10-17T08:00:04;101677.59;;;16.28;96.72
66887;BME280;53798;51.680;5.976;2022-10-17T08:02:38;101689.25;;;16.26;96.87
66887;BME280;53798;51.680;5.976;2022-10-17T08:05:05;101691.97;;;16.24;97.02
66887;BME280;53798;51.680;5.976;2022-10-17T08:07:32;101706.13;;;16.25;96.88
66887;BME280;53798;51.680;5.976;2022-10-17T08:09:59;101712.25;;;16.27;97.00
66887;BME280;53798;51.680;5.976;2022-10-17T08:12:27;101718.31;;;16.30;97.08
66887;BME280;53798;51.680;5.976;2022-10-17T08:14:59;101734.97;;;16.36;97.25
66887;BME280;53798;51.680;5.976;2022-10-17T08:17:28;101730.38;;;16.39;97.29
66887;BME280;53798;51.680;5.976;2022-10-17T08:19:55;101739.22;;;16.40;97.32
66887;BME280;53798;51.680;5.976;2022-10-17T08:22:23;101745.28;;;16.43;97.54
66887;BME280;53798;51.680;5.976;2022-10-17T08:24:52;101749.56;;;16.48;97.11
66887;BME280;53798;51.680;5.976;2022-10-17T08:27:20;101755.50;;;16.54;96.39
66887;BME280;53798;51.680;5.976;2022-10-17T08:29:50;101764.13;;;16.61;96.69
66887;BME280;53798;51.680;5.976;2022-10-17T08:32:20;101763.00;;;16.67;97.14
66887;BME280;53798;51.680;5.976;2022-10-17T08:34:54;101761.81;;;16.74;97.17
66887;BME280;53798;51.680;5.976;2022-10-17T08:37:22;101769.53;;;16.80;97.04
66887;BME280;53798;51.680;5.976;2022-10-17T08:39:49;101774.72;;;16.83;97.29
66887;BME280;53798;51.680;5.976;2022-10-17T08:42:50;101776.34;;;16.87;97.33
66887;BME280;53798;51.680;5.976;2022-10-17T08:48:14;101797.47;;;16.92;96.98
66887;BME280;53798;51.680;5.976;2022-10-17T08:50:51;101805.44;;;16.92;96.80
66887;BME280;53798;51.680;5.976;2022-10-17T08:53:38;101809.88;;;16.91;96.59
66887;BME280;53798;51.680;5.976;2022-10-17T08:56:27;101822.34;;;16.91;96.83
66887;BME280;53798;51.680;5.976;2022-10-17T08:59:21;101815.16;;;16.93;96.80
66887;BME280;53798;51.680;5.976;2022-10-17T09:08:19;101813.13;;;17.00;97.22
66887;BME280;53798;51.680;5.976;2022-10-17T09:20:25;101818.81;;;17.13;97.49
66887;BME280;53798;51.680;5.976;2022-10-17T09:25:47;101813.91;;;17.24;97.16
66887;BME280;53798;51.680;5.976;2022-10-17T09:28:24;101810.84;;;17.33;96.80
66887;BME280;53798;51.680;5.976;2022-10-17T09:31:11;101818.56;;;17.39;95.89
66887;BME280;53798;51.680;5.976;2022-10-17T09:33:41;101822.06;;;17.40;95.95
66887;BME280;53798;51.680;5.976;2022-10-17T09:36:33;101823.81;;;17.41;95.74
66887;BME280;53798;51.680;5.976;2022-10-17T09:39:17;101827.28;;;17.43;95.28
66887;BME280;53798;51.680;5.976;2022-10-17T09:41:49;101850.41;;;17.43;95.16
66887;BME280;53798;51.680;5.976;2022-10-17T09:44:32;101879.06;;;17.37;95.07
66887;BME280;53798;51.680;5.976;2022-10-17T09:47:11;101941.44;;;17.33;94.23
66887;BME280;53798;51.680;5.976;2022-10-17T09:49:49;101953.25;;;17.26;94.14
66887;BME280;53798;51.680;5.976;2022-10-17T09:52:21;101860.53;;;17.14;94.02
66887;BME280;53798;51.680;5.976;2022-10-17T09:55:06;101834.59;;;16.97;94.98
66887;BME280;53798;51.680;5.976;2022-10-17T10:00:26;101801.75;;;16.74;96.44
66887;BME280;53798;51.680;5.976;2022-10-17T10:03:21;101818.94;;;16.65;97.12
66887;BME280;53798;51.680;5.976;2022-10-17T10:08:56;101828.13;;;16.58;98.22
66887;BME280;53798;51.680;5.976;2022-10-17T10:14:32;101844.78;;;16.63;99.17
66887;BME280;53798;51.680;5.976;2022-10-17T10:17:26;101863.34;;;16.65;99.31
66887;BME280;53798;51.680;5.976;2022-10-17T10:20:27;101886.50;;;16.63;99.49
66887;BME280;53798;51.680;5.976;2022-10-17T10:23:06;101880.31;;;16.62;99.89
66887;BME280;53798;51.680;5.976;2022-10-17T10:25:50;101871.50;;;16.60;100.00
66887;BME280;53798;51.680;5.976;2022-10-17T10:28:31;101856.41;;;16.60;100.00
66887;BME280;53798;51.680;5.976;2022-10-17T10:31:07;101865.13;;;16.64;100.00
66887;BME280;53798;51.680;5.976;2022-10-17T10:33:41;101872.06;;;16.68;100.00
66887;BME280;53798;51.680;5.976;2022-10-17T10:36:15;101885.31;;;16.70;100.00
66887;BME280;53798;51.680;5.976;2022-10-17T10:38:51;101888.91;;;16.69;100.00
66887;BME280;53798;51.680;5.976;2022-10-17T10:41:23;101870.41;;;16.66;100.00
66887;BME280;53798;51.680;5.976;2022-10-17T10:43:53;101879.38;;;16.63;100.00
66887;BME280;53798;51.680;5.976;2022-10-17T10:46:27;101876.72;;;16.63;100.00
66887;BME280;53798;51.680;5.976;2022-10-17T10:48:58;101870.59;;;16.61;100.00
66887;BME280;53798;51.680;5.976;2022-10-17T10:51:45;101882.97;;;16.62;100.00
66887;BME280;53798;51.680;5.976;2022-10-17T10:54:20;101879.50;;;16.60;100.00
66887;BME280;53798;51.680;5.976;2022-10-17T10:56:55;101884.75;;;16.61;100.00
66887;BME280;53798;51.680;5.976;2022-10-17T10:59:34;101889.03;;;16.66;100.00
66887;BME280;53798;51.680;5.976;2022-10-17T11:02:15;101874.81;;;16.67;100.00
66887;BME280;53798;51.680;5.976;2022-10-17T11:04:58;101887.75;;;16.76;100.00
66887;BME280;53798;51.680;5.976;2022-10-17T11:07:45;101901.69;;;16.83;100.00
66887;BME280;53798;51.680;5.976;2022-10-17T11:10:40;101900.59;;;16.88;100.00
66887;BME280;53798;51.680;5.976;2022-10-17T11:13:22;101906.66;;;16.92;100.00
66887;BME280;53798;51.680;5.976;2022-10-17T11:19:08;101916.22;;;16.98;100.00
66887;BME280;53798;51.680;5.976;2022-10-17T11:21:55;101916.97;;;17.01;100.00
66887;BME280;53798;51.680;5.976;2022-10-17T11:24:43;101923.88;;;17.05;100.00
66887;BME280;53798;51.680;5.976;2022-10-17T11:27:23;101920.28;;;17.06;100.00
66887;BME280;53798;51.680;5.976;2022-10-17T11:29:55;101923.66;;;17.12;100.00
66887;BME280;53798;51.680;5.976;2022-10-17T11:32:41;101939.38;;;17.18;100.00
66887;BME280;53798;51.680;5.976;2022-10-17T11:35:19;101947.25;;;17.21;100.00
66887;BME280;53798;51.680;5.976;2022-10-17T11:40:45;101951.78;;;17.19;100.00
66887;BME280;53798;51.680;5.976;2022-10-17T11:43:26;101953.63;;;17.17;100.00
66887;BME280;53798;51.680;5.976;2022-10-17T11:46:06;101966.94;;;17.17;100.00
66887;BME280;53798;51.680;5.976;2022-10-17T11:48:59;101974.19;;;17.13;100.00
66887;BME280;53798;51.680;5.976;2022-10-17T11:51:59;101971.66;;;17.10;100.00
66887;BME280;53798;51.680;5.976;2022-10-17T11:54:47;101977.13;;;17.07;100.00
66887;BME280;53798;51.680;5.976;2022-10-17T12:10:17;101976.19;;;17.08;100.00
66887;BME280;53798;51.680;5.976;2022-10-17T12:12:55;101967.28;;;17.09;100.00
66887;BME280;53798;51.680;5.976;2022-10-17T12:17:59;101967.94;;;17.14;100.00
66887;BME280;53798;51.680;5.976;2022-10-17T12:20:34;101958.13;;;17.15;100.00
66887;BME280;53798;51.680;5.976;2022-10-17T12:25:57;101969.38;;;17.23;100.00
66887;BME280;53798;51.680;5.976;2022-10-17T12:28:43;101968.44;;;17.24;100.00
66887;BME280;53798;51.680;5.976;2022-10-17T12:46:58;101990.50;;;17.28;100.00
66887;BME280;53798;51.680;5.976;2022-10-17T12:49:55;101990.31;;;17.32;100.00
66887;BME280;53798;51.680;5.976;2022-10-17T12:54:59;101987.22;;;17.43;100.00
66887;BME280;53798;51.680;5.976;2022-10-17T12:57:48;101985.25;;;17.48;100.00
66887;BME280;53798;51.680;5.976;2022-10-17T13:00:34;101985.03;;;17.53;100.00
66887;BME280;53798;51.680;5.976;2022-10-17T13:03:32;101981.38;;;17.56;100.00
66887;BME280;53798;51.680;5.976;2022-10-17T13:06:20;101990.03;;;17.61;100.00
66887;BME280;53798;51.680;5.976;2022-10-17T13:09:04;101998.81;;;17.64;100.00
66887;BME280;53798;51.680;5.976;2022-10-17T13:11:51;102004.78;;;17.69;100.00
66887;BME280;53798;51.680;5.976;2022-10-17T13:14:21;102005.59;;;17.72;100.00
66887;BME280;53798;51.680;5.976;2022-10-17T13:16:53;102013.59;;;17.72;100.00
66887;BME280;53798;51.680;5.976;2022-10-17T13:19:25;102020.91;;;17.66;100.00
66887;BME280;53798;51.680;5.976;2022-10-17T13:22:01;102015.53;;;17.68;100.00
66887;BME280;53798;51.680;5.976;2022-10-17T13:24:36;102027.00;;;17.70;100.00
66887;BME280;53798;51.680;5.976;2022-10-17T13:27:29;102013.59;;;17.72;100.00
66887;BME280;53798;51.680;5.976;2022-10-17T13:30:00;102022.44;;;17.72;100.00
66887;BME280;53798;51.680;5.976;2022-10-17T13:32:37;102027.66;;;17.75;100.00
66887;BME280;53798;51.680;5.976;2022-10-17T13:35:12;102028.72;;;17.71;100.00
66887;BME280;53798;51.680;5.976;2022-10-17T13:37:45;102043.13;;;17.67;100.00
66887;BME280;53798;51.680;5.976;2022-10-17T13:40:22;102047.66;;;17.65;100.00
66887;BME280;53798;51.680;5.976;2022-10-17T13:43:18;102049.66;;;17.60;100.00
66887;BME280;53798;51.680;5.976;2022-10-17T13:45:50;102053.25;;;17.59;100.00
66887;BME280;53798;51.680;5.976;2022-10-17T13:48:22;102059.53;;;17.56;100.00
66887;BME280;53798;51.680;5.976;2022-10-17T13:50:54;102061.63;;;17.49;100.00
66887;BME280;53798;51.680;5.976;2022-10-17T13:56:20;102068.78;;;17.47;100.00
66887;BME280;53798;51.680;5.976;2022-10-17T13:59:01;102071.56;;;17.44;100.00
66887;BME280;53798;51.680;5.976;2022-10-17T14:01:52;102064.56;;;17.42;100.00
66887;BME280;53798;51.680;5.976;2022-10-17T14:04:21;102071.75;;;17.39;100.00
66887;BME280;53798;51.680;5.976;2022-10-17T14:06:49;102077.94;;;17.40;100.00
66887;BME280;53798;51.680;5.976;2022-10-17T14:09:24;102078.94;;;17.37;100.00
66887;BME280;53798;51.680;5.976;2022-10-17T14:12:02;102078.28;;;17.32;100.00
66887;BME280;53798;51.680;5.976;2022-10-17T14:14:47;102073.91;;;17.30;100.00
66887;BME280;53798;51.680;5.976;2022-10-17T14:17:36;102074.09;;;17.25;100.00
66887;BME280;53798;51.680;5.976;2022-10-17T14:20:05;102087.47;;;17.23;100.00
66887;BME280;53798;51.680;5.976;2022-10-17T14:22:55;102089.28;;;17.23;100.00
66887;BME280;53798;51.680;5.976;2022-10-17T14:25:43;102096.41;;;17.22;100.00
66887;BME280;53798;51.680;5.976;2022-10-17T14:30:51;102096.47;;;17.21;100.00
66887;BME280;53798;51.680;5.976;2022-10-17T14:33:28;102107.31;;;17.16;100.00
66887;BME280;53798;51.680;5.976;2022-10-17T14:35:58;102124.16;;;17.17;100.00
66887;BME280;53798;51.680;5.976;2022-10-17T14:38:28;102122.47;;;17.14;100.00
66887;BME280;53798;51.680;5.976;2022-10-17T14:41:06;102123.50;;;17.10;100.00
66887;BME280;53798;51.680;5.976;2022-10-17T14:44:07;102139.63;;;17.07;100.00
66887;BME280;53798;51.680;5.976;2022-10-17T14:46:53;102137.91;;;17.04;100.00
66887;BME280;53798;51.680;5.976;2022-10-17T14:49:38;102144.13;;;17.05;100.00
66887;BME280;53798;51.680;5.976;2022-10-17T14:54:48;102150.28;;;17.07;100.00
66887;BME280;53798;51.680;5.976;2022-10-17T14:59:58;102159.03;;;17.11;100.00
66887;BME280;53798;51.680;5.976;2022-10-17T15:02:27;102145.63;;;17.12;100.00
66887;BME280;53798;51.680;5.976;2022-10-17T15:04:56;102148.25;;;17.14;100.00
66887;BME280;53798;51.680;5.976;2022-10-17T15:07:23;102146.44;;;17.14;100.00
66887;BME280;53798;51.680;5.976;2022-10-17T15:09:52;102142.78;;;17.17;100.00
66887;BME280;53798;51.680;5.976;2022-10-17T15:12:22;102133.94;;;17.16;100.00
66887;BME280;53798;51.680;5.976;2022-10-17T15:14:52;102140.13;;;17.17;100.00